sensor_id;sensor_type;location;lat;lon;timestamp;P1;durP1;ratioP1;P2;durP2;ratioP2
20140;SDS011;10231;47.702;9.826;2024-02-16T00:00:23;4.53;;;4.13;;
20140;SDS011;10231;47.702;9.826;2024-02-16T00:02:50;4.03;;;3.43;;
20140;SDS011;10231;47.702;9.826;2024-02-16T00:05:16;3.30;;;3.00;;
20140;SDS011;10231;47.702;9.826;2024-02-16T00:07:42;4.90;;;3.83;;
20140;SDS011;10231;47.702;9.826;2024-02-16T00:10:08;4.23;;;3.40;;
20140;SDS011;10231;47.702;9.826;2024-02-16T00:12:34;4.33;;;3.30;;
20140;SDS011;10231;47.702;9.826;2024-02-16T00:15:02;4.00;;;3.60;;
20140;SDS011;10231;47.702;9.826;2024-02-16T00:17:28;3.87;;;3.10;;
20140;SDS011;10231;47.702;9.826;2024-02-16T00:19:54;5.43;;;2.93;;
20140;SDS011;10231;47.702;9.826;2024-02-16T00:22:20;5.77;;;3.47;;
20140;SDS011;10231;47.702;9.826;2024-02-16T00:24:46;4.10;;;3.50;;
20140;SDS011;10231;47.702;9.826;2024-02-16T00:27:11;3.53;;;2.90;;
20140;SDS011;10231;47.702;9.826;2024-02-16T00:29:37;3.53;;;3.10;;
20140;SDS011;10231;47.702;9.826;2024-02-16T00:32:05;3.90;;;3.27;;
20140;SDS011;10231;47.702;9.826;2024-02-16T00:34:32;3.70;;;3.40;;
20140;SDS011;10231;47.702;9.826;2024-02-16T00:36:58;3.63;;;3.30;;
20140;SDS011;10231;47.702;9.826;2024-02-16T00:39:23;3.87;;;3.57;;
20140;SDS011;10231;47.702;9.826;2024-02-16T00:41:50;3.80;;;3.40;;
20140;SDS011;10231;47.702;9.826;2024-02-16T00:44:15;5.40;;;3.53;;
20140;SDS011;10231;47.702;9.826;2024-02-16T00:46:42;3.93;;;3.57;;
20140;SDS011;10231;47.702;9.826;2024-02-16T00:49:08;5.33;;;3.90;;
20140;SDS011;10231;47.702;9.826;2024-02-16T00:51:35;3.53;;;3.10;;
20140;SDS011;10231;47.702;9.826;2024-02-16T00:54:01;4.47;;;3.53;;
20140;SDS011;10231;47.702;9.826;2024-02-16T00:56:28;4.43;;;4.03;;
20140;SDS011;10231;47.702;9.826;2024-02-16T00:58:54;3.87;;;3.57;;
20140;SDS011;10231;47.702;9.826;2024-02-16T01:01:19;4.37;;;3.43;;
20140;SDS011;10231;47.702;9.826;2024-02-16T01:03:47;4.27;;;3.23;;
20140;SDS011;10231;47.702;9.826;2024-02-16T01:06:13;3.17;;;2.97;;
20140;SDS011;10231;47.702;9.826;2024-02-16T01:08:39;3.57;;;3.27;;
20140;SDS011;10231;47.702;9.826;2024-02-16T01:11:05;3.27;;;2.87;;
20140;SDS011;10231;47.702;9.826;2024-02-16T01:13:30;3.57;;;3.10;;
20140;SDS011;10231;47.702;9.826;2024-02-16T01:15:57;3.43;;;2.90;;
20140;SDS011;10231;47.702;9.826;2024-02-16T01:18:23;3.57;;;3.27;;
20140;SDS011;10231;47.702;9.826;2024-02-16T01:20:48;3.70;;;3.40;;
20140;SDS011;10231;47.702;9.826;2024-02-16T01:23:14;4.30;;;3.43;;
20140;SDS011;10231;47.702;9.826;2024-02-16T01:25:40;5.13;;;3.40;;
20140;SDS011;10231;47.702;9.826;2024-02-16T01:28:06;5.07;;;3.27;;
20140;SDS011;10231;47.702;9.826;2024-02-16T01:30:31;3.87;;;3.47;;
20140;SDS011;10231;47.702;9.826;2024-02-16T01:32:57;4.83;;;3.10;;
20140;SDS011;10231;47.702;9.826;2024-02-16T01:35:22;5.70;;;3.30;;
20140;SDS011;10231;47.702;9.826;2024-02-16T01:37:48;6.60;;;5.90;;
20140;SDS011;10231;47.702;9.826;2024-02-16T01:40:13;3.90;;;3.43;;
20140;SDS011;10231;47.702;9.826;2024-02-16T01:42:42;5.20;;;3.47;;
20140;SDS011;10231;47.702;9.826;2024-02-16T01:45:12;4.77;;;3.33;;
20140;SDS011;10231;47.702;9.826;2024-02-16T01:47:38;6.30;;;3.60;;
20140;SDS011;10231;47.702;9.826;2024-02-16T01:50:04;4.33;;;3.73;;
20140;SDS011;10231;47.702;9.826;2024-02-16T01:52:30;4.10;;;3.43;;
20140;SDS011;10231;47.702;9.826;2024-02-16T01:54:59;4.17;;;2.80;;
20140;SDS011;10231;47.702;9.826;2024-02-16T01:57:26;4.33;;;3.20;;
20140;SDS011;10231;47.702;9.826;2024-02-16T01:59:51;3.83;;;3.53;;
20140;SDS011;10231;47.702;9.826;2024-02-16T02:02:18;4.03;;;3.33;;
20140;SDS011;10231;47.702;9.826;2024-02-16T02:04:44;3.60;;;3.30;;
20140;SDS011;10231;47.702;9.826;2024-02-16T02:07:13;4.27;;;3.20;;
20140;SDS011;10231;47.702;9.826;2024-02-16T02:09:40;8.20;;;3.43;;
20140;SDS011;10231;47.702;9.826;2024-02-16T02:12:05;4.20;;;3.27;;
20140;SDS011;10231;47.702;9.826;2024-02-16T02:18:06;4.90;;;3.33;;
20140;SDS011;10231;47.702;9.826;2024-02-16T02:20:32;4.13;;;3.73;;
20140;SDS011;10231;47.702;9.826;2024-02-16T02:22:58;4.07;;;3.67;;
20140;SDS011;10231;47.702;9.826;2024-02-16T02:25:24;4.47;;;3.87;;
20140;SDS011;10231;47.702;9.826;2024-02-16T02:27:51;4.27;;;3.83;;
20140;SDS011;10231;47.702;9.826;2024-02-16T02:30:17;4.57;;;3.13;;
20140;SDS011;10231;47.702;9.826;2024-02-16T02:32:42;3.90;;;3.57;;
20140;SDS011;10231;47.702;9.826;2024-02-16T02:35:08;4.10;;;3.70;;
20140;SDS011;10231;47.702;9.826;2024-02-16T02:37:34;4.03;;;3.73;;
20140;SDS011;10231;47.702;9.826;2024-02-16T02:40:00;3.97;;;3.67;;
20140;SDS011;10231;47.702;9.826;2024-02-16T02:42:25;4.40;;;3.80;;
20140;SDS011;10231;47.702;9.826;2024-02-16T02:44:51;5.43;;;3.47;;
20140;SDS011;10231;47.702;9.826;2024-02-16T02:47:16;4.43;;;3.90;;
20140;SDS011;10231;47.702;9.826;2024-02-16T02:49:42;4.10;;;3.60;;
20140;SDS011;10231;47.702;9.826;2024-02-16T02:52:08;5.10;;;3.80;;
20140;SDS011;10231;47.702;9.826;2024-02-16T02:54:34;4.33;;;3.70;;
20140;SDS011;10231;47.702;9.826;2024-02-16T02:57:00;4.23;;;3.83;;
20140;SDS011;10231;47.702;9.826;2024-02-16T02:59:27;3.50;;;3.20;;
20140;SDS011;10231;47.702;9.826;2024-02-16T03:01:52;5.10;;;4.20;;
20140;SDS011;10231;47.702;9.826;2024-02-16T03:04:18;3.80;;;3.50;;
20140;SDS011;10231;47.702;9.826;2024-02-16T03:06:43;4.10;;;3.70;;
20140;SDS011;10231;47.702;9.826;2024-02-16T03:09:10;4.93;;;3.70;;
20140;SDS011;10231;47.702;9.826;2024-02-16T03:11:37;4.50;;;4.10;;
20140;SDS011;10231;47.702;9.826;2024-02-16T03:14:03;4.97;;;4.43;;
20140;SDS011;10231;47.702;9.826;2024-02-16T03:16:30;5.83;;;4.87;;
20140;SDS011;10231;47.702;9.826;2024-02-16T03:18:56;4.90;;;4.40;;
20140;SDS011;10231;47.702;9.826;2024-02-16T03:21:22;4.60;;;4.20;;
20140;SDS011;10231;47.702;9.826;2024-02-16T03:23:47;4.77;;;4.30;;
20140;SDS011;10231;47.702;9.826;2024-02-16T03:26:13;4.73;;;4.30;;
20140;SDS011;10231;47.702;9.826;2024-02-16T03:28:40;5.87;;;4.73;;
20140;SDS011;10231;47.702;9.826;2024-02-16T03:31:05;5.07;;;4.37;;
20140;SDS011;10231;47.702;9.826;2024-02-16T03:33:33;6.43;;;4.87;;
20140;SDS011;10231;47.702;9.826;2024-02-16T03:35:58;4.80;;;4.33;;
20140;SDS011;10231;47.702;9.826;2024-02-16T03:38:25;4.47;;;4.07;;
20140;SDS011;10231;47.702;9.826;2024-02-16T03:40:51;7.57;;;5.57;;
20140;SDS011;10231;47.702;9.826;2024-02-16T03:43:16;6.20;;;4.47;;
20140;SDS011;10231;47.702;9.826;2024-02-16T03:45:42;4.83;;;4.30;;
20140;SDS011;10231;47.702;9.826;2024-02-16T03:48:07;4.97;;;4.10;;
20140;SDS011;10231;47.702;9.826;2024-02-16T03:50:33;5.70;;;4.27;;
20140;SDS011;10231;47.702;9.826;2024-02-16T03:53:00;4.60;;;3.60;;
20140;SDS011;10231;47.702;9.826;2024-02-16T03:55:25;3.50;;;3.20;;
20140;SDS011;10231;47.702;9.826;2024-02-16T03:57:51;3.77;;;3.43;;
20140;SDS011;10231;47.702;9.826;2024-02-16T04:00:17;6.67;;;4.47;;
20140;SDS011;10231;47.702;9.826;2024-02-16T04:02:42;5.03;;;4.53;;
20140;SDS011;10231;47.702;9.826;2024-02-16T04:05:08;5.03;;;4.00;;
20140;SDS011;10231;47.702;9.826;2024-02-16T04:07:34;4.60;;;4.00;;
20140;SDS011;10231;47.702;9.826;2024-02-16T04:10:00;5.10;;;4.60;;
20140;SDS011;10231;47.702;9.826;2024-02-16T04:12:26;7.20;;;4.07;;
20140;SDS011;10231;47.702;9.826;2024-02-16T04:14:52;4.73;;;4.20;;
20140;SDS011;10231;47.702;9.826;2024-02-16T04:17:18;3.90;;;3.43;;
20140;SDS011;10231;47.702;9.826;2024-02-16T04:19:43;3.90;;;3.60;;
20140;SDS011;10231;47.702;9.826;2024-02-16T04:22:09;4.10;;;3.43;;
20140;SDS011;10231;47.702;9.826;2024-02-16T04:24:34;3.77;;;3.33;;
20140;SDS011;10231;47.702;9.826;2024-02-16T04:27:00;4.30;;;3.90;;
20140;SDS011;10231;47.702;9.826;2024-02-16T04:29:25;4.10;;;3.70;;
20140;SDS011;10231;47.702;9.826;2024-02-16T04:31:51;3.90;;;3.60;;
20140;SDS011;10231;47.702;9.826;2024-02-16T04:34:16;4.33;;;3.80;;
20140;SDS011;10231;47.702;9.826;2024-02-16T04:36:42;4.00;;;3.60;;
20140;SDS011;10231;47.702;9.826;2024-02-16T04:39:08;4.20;;;3.80;;
20140;SDS011;10231;47.702;9.826;2024-02-16T04:41:35;5.53;;;3.33;;
20140;SDS011;10231;47.702;9.826;2024-02-16T04:44:00;3.63;;;3.33;;
20140;SDS011;10231;47.702;9.826;2024-02-16T04:46:26;5.10;;;3.77;;
20140;SDS011;10231;47.702;9.826;2024-02-16T04:48:52;4.00;;;3.57;;
20140;SDS011;10231;47.702;9.826;2024-02-16T04:51:18;5.03;;;3.90;;
20140;SDS011;10231;47.702;9.826;2024-02-16T04:53:43;3.53;;;3.23;;
20140;SDS011;10231;47.702;9.826;2024-02-16T04:56:09;3.80;;;3.47;;
20140;SDS011;10231;47.702;9.826;2024-02-16T04:58:34;3.57;;;3.27;;
20140;SDS011;10231;47.702;9.826;2024-02-16T05:01:00;4.60;;;3.60;;
20140;SDS011;10231;47.702;9.826;2024-02-16T05:03:25;5.57;;;3.97;;
20140;SDS011;10231;47.702;9.826;2024-02-16T05:05:51;4.30;;;3.90;;
20140;SDS011;10231;47.702;9.826;2024-02-16T05:08:21;5.07;;;3.47;;
20140;SDS011;10231;47.702;9.826;2024-02-16T05:10:47;3.83;;;3.43;;
20140;SDS011;10231;47.702;9.826;2024-02-16T05:13:12;5.80;;;4.20;;
20140;SDS011;10231;47.702;9.826;2024-02-16T05:15:39;3.87;;;3.53;;
20140;SDS011;10231;47.702;9.826;2024-02-16T05:18:05;5.73;;;3.90;;
20140;SDS011;10231;47.702;9.826;2024-02-16T05:20:30;4.30;;;3.50;;
20140;SDS011;10231;47.702;9.826;2024-02-16T05:22:56;3.90;;;3.50;;
20140;SDS011;10231;47.702;9.826;2024-02-16T05:25:21;3.70;;;3.40;;
20140;SDS011;10231;47.702;9.826;2024-02-16T05:27:47;5.13;;;3.50;;
20140;SDS011;10231;47.702;9.826;2024-02-16T05:30:12;3.53;;;3.23;;
20140;SDS011;10231;47.702;9.826;2024-02-16T05:32:40;3.97;;;3.10;;
20140;SDS011;10231;47.702;9.826;2024-02-16T05:35:09;3.43;;;3.13;;
20140;SDS011;10231;47.702;9.826;2024-02-16T05:37:48;4.33;;;3.27;;
20140;SDS011;10231;47.702;9.826;2024-02-16T05:40:16;5.20;;;3.83;;
20140;SDS011;10231;47.702;9.826;2024-02-16T05:42:54;3.10;;;2.83;;
20140;SDS011;10231;47.702;9.826;2024-02-16T05:45:23;3.70;;;3.40;;
20140;SDS011;10231;47.702;9.826;2024-02-16T05:47:49;3.80;;;3.40;;
20140;SDS011;10231;47.702;9.826;2024-02-16T05:50:15;4.20;;;3.87;;
20140;SDS011;10231;47.702;9.826;2024-02-16T05:52:41;3.60;;;3.30;;
20140;SDS011;10231;47.702;9.826;2024-02-16T05:55:08;3.77;;;3.47;;
20140;SDS011;10231;47.702;9.826;2024-02-16T05:57:35;5.40;;;4.13;;
20140;SDS011;10231;47.702;9.826;2024-02-16T06:00:02;4.50;;;3.70;;
20140;SDS011;10231;47.702;9.826;2024-02-16T06:02:33;3.30;;;3.00;;
20140;SDS011;10231;47.702;9.826;2024-02-16T06:04:59;3.90;;;3.50;;
20140;SDS011;10231;47.702;9.826;2024-02-16T06:07:26;5.73;;;3.70;;
20140;SDS011;10231;47.702;9.826;2024-02-16T06:09:51;7.40;;;4.17;;
20140;SDS011;10231;47.702;9.826;2024-02-16T06:12:19;5.93;;;3.97;;
20140;SDS011;10231;47.702;9.826;2024-02-16T06:14:45;5.90;;;3.70;;
20140;SDS011;10231;47.702;9.826;2024-02-16T06:17:11;4.47;;;3.50;;
20140;SDS011;10231;47.702;9.826;2024-02-16T06:19:39;3.60;;;3.30;;
20140;SDS011;10231;47.702;9.826;2024-02-16T06:22:05;3.60;;;3.30;;
20140;SDS011;10231;47.702;9.826;2024-02-16T06:24:31;3.70;;;3.40;;
20140;SDS011;10231;47.702;9.826;2024-02-16T06:26:56;5.13;;;3.20;;
20140;SDS011;10231;47.702;9.826;2024-02-16T06:29:22;4.13;;;3.73;;
20140;SDS011;10231;47.702;9.826;2024-02-16T06:31:47;3.73;;;3.13;;
20140;SDS011;10231;47.702;9.826;2024-02-16T06:34:13;4.03;;;3.43;;
20140;SDS011;10231;47.702;9.826;2024-02-16T06:36:39;4.97;;;3.70;;
20140;SDS011;10231;47.702;9.826;2024-02-16T06:39:06;3.90;;;3.50;;
20140;SDS011;10231;47.702;9.826;2024-02-16T06:41:31;4.23;;;3.30;;
20140;SDS011;10231;47.702;9.826;2024-02-16T06:43:57;3.23;;;2.93;;
20140;SDS011;10231;47.702;9.826;2024-02-16T06:46:23;3.80;;;3.33;;
20140;SDS011;10231;47.702;9.826;2024-02-16T06:48:49;6.20;;;3.73;;
20140;SDS011;10231;47.702;9.826;2024-02-16T06:51:17;4.40;;;3.47;;
20140;SDS011;10231;47.702;9.826;2024-02-16T06:53:42;4.27;;;3.80;;
20140;SDS011;10231;47.702;9.826;2024-02-16T06:56:09;5.03;;;3.43;;
20140;SDS011;10231;47.702;9.826;2024-02-16T06:58:34;4.07;;;3.40;;
20140;SDS011;10231;47.702;9.826;2024-02-16T07:01:01;3.97;;;3.60;;
20140;SDS011;10231;47.702;9.826;2024-02-16T07:03:28;5.57;;;3.67;;
20140;SDS011;10231;47.702;9.826;2024-02-16T07:05:54;5.57;;;3.70;;
20140;SDS011;10231;47.702;9.826;2024-02-16T07:08:20;4.53;;;3.60;;
20140;SDS011;10231;47.702;9.826;2024-02-16T07:10:46;6.97;;;3.57;;
20140;SDS011;10231;47.702;9.826;2024-02-16T07:13:12;3.67;;;3.37;;
20140;SDS011;10231;47.702;9.826;2024-02-16T07:15:38;5.20;;;3.23;;
20140;SDS011;10231;47.702;9.826;2024-02-16T07:18:05;4.67;;;3.30;;
20140;SDS011;10231;47.702;9.826;2024-02-16T07:20:31;3.90;;;3.50;;
20140;SDS011;10231;47.702;9.826;2024-02-16T07:22:56;6.93;;;3.50;;
20140;SDS011;10231;47.702;9.826;2024-02-16T07:25:22;4.80;;;3.43;;
20140;SDS011;10231;47.702;9.826;2024-02-16T07:27:47;5.93;;;4.13;;
20140;SDS011;10231;47.702;9.826;2024-02-16T07:30:13;5.20;;;3.23;;
20140;SDS011;10231;47.702;9.826;2024-02-16T07:32:38;3.87;;;3.53;;
20140;SDS011;10231;47.702;9.826;2024-02-16T07:35:04;5.07;;;3.50;;
20140;SDS011;10231;47.702;9.826;2024-02-16T07:37:30;5.63;;;3.67;;
20140;SDS011;10231;47.702;9.826;2024-02-16T07:39:55;10.70;;;3.70;;
20140;SDS011;10231;47.702;9.826;2024-02-16T07:42:21;5.67;;;3.50;;
20140;SDS011;10231;47.702;9.826;2024-02-16T07:44:46;3.63;;;3.33;;
20140;SDS011;10231;47.702;9.826;2024-02-16T07:47:12;4.13;;;3.53;;
20140;SDS011;10231;47.702;9.826;2024-02-16T07:49:38;10.33;;;3.67;;
20140;SDS011;10231;47.702;9.826;2024-02-16T07:52:07;3.83;;;3.40;;
20140;SDS011;10231;47.702;9.826;2024-02-16T07:54:34;8.40;;;4.00;;
20140;SDS011;10231;47.702;9.826;2024-02-16T07:56:59;6.10;;;3.70;;
20140;SDS011;10231;47.702;9.826;2024-02-16T07:59:25;4.27;;;3.87;;
20140;SDS011;10231;47.702;9.826;2024-02-16T08:01:51;4.27;;;3.53;;
20140;SDS011;10231;47.702;9.826;2024-02-16T08:04:16;3.93;;;3.30;;
20140;SDS011;10231;47.702;9.826;2024-02-16T08:06:42;6.60;;;4.13;;
20140;SDS011;10231;47.702;9.826;2024-02-16T08:09:07;4.10;;;3.60;;
20140;SDS011;10231;47.702;9.826;2024-02-16T08:11:33;4.50;;;3.97;;
20140;SDS011;10231;47.702;9.826;2024-02-16T08:13:59;5.57;;;3.93;;
20140;SDS011;10231;47.702;9.826;2024-02-16T08:16:26;4.30;;;3.90;;
20140;SDS011;10231;47.702;9.826;2024-02-16T08:18:52;5.77;;;3.80;;
20140;SDS011;10231;47.702;9.826;2024-02-16T08:21:18;4.17;;;3.77;;
20140;SDS011;10231;47.702;9.826;2024-02-16T08:23:44;5.13;;;3.97;;
20140;SDS011;10231;47.702;9.826;2024-02-16T08:26:09;4.17;;;3.70;;
20140;SDS011;10231;47.702;9.826;2024-02-16T08:28:35;4.40;;;3.90;;
20140;SDS011;10231;47.702;9.826;2024-02-16T08:31:00;3.57;;;3.27;;
20140;SDS011;10231;47.702;9.826;2024-02-16T08:33:26;4.50;;;4.00;;
20140;SDS011;10231;47.702;9.826;2024-02-16T08:35:51;4.40;;;3.83;;
20140;SDS011;10231;47.702;9.826;2024-02-16T08:38:17;3.90;;;3.40;;
20140;SDS011;10231;47.702;9.826;2024-02-16T08:40:43;3.57;;;3.27;;
20140;SDS011;10231;47.702;9.826;2024-02-16T08:43:08;4.33;;;3.50;;
20140;SDS011;10231;47.702;9.826;2024-02-16T08:45:34;4.37;;;3.60;;
20140;SDS011;10231;47.702;9.826;2024-02-16T08:47:59;5.37;;;3.67;;
20140;SDS011;10231;47.702;9.826;2024-02-16T08:50:27;5.93;;;3.80;;
20140;SDS011;10231;47.702;9.826;2024-02-16T08:52:52;7.47;;;4.07;;
20140;SDS011;10231;47.702;9.826;2024-02-16T08:55:19;6.20;;;4.40;;
20140;SDS011;10231;47.702;9.826;2024-02-16T08:57:45;7.07;;;4.70;;
20140;SDS011;10231;47.702;9.826;2024-02-16T09:00:10;6.73;;;4.60;;
20140;SDS011;10231;47.702;9.826;2024-02-16T09:02:37;5.93;;;4.90;;
20140;SDS011;10231;47.702;9.826;2024-02-16T09:05:03;6.57;;;4.97;;
20140;SDS011;10231;47.702;9.826;2024-02-16T09:07:29;4.50;;;3.90;;
20140;SDS011;10231;47.702;9.826;2024-02-16T09:09:55;4.73;;;3.67;;
20140;SDS011;10231;47.702;9.826;2024-02-16T09:12:21;4.47;;;3.57;;
20140;SDS011;10231;47.702;9.826;2024-02-16T09:14:47;5.33;;;3.77;;
20140;SDS011;10231;47.702;9.826;2024-02-16T09:17:13;4.63;;;3.33;;
20140;SDS011;10231;47.702;9.826;2024-02-16T09:19:38;3.90;;;3.40;;
20140;SDS011;10231;47.702;9.826;2024-02-16T09:22:04;7.63;;;3.67;;
20140;SDS011;10231;47.702;9.826;2024-02-16T09:24:31;7.60;;;3.60;;
20140;SDS011;10231;47.702;9.826;2024-02-16T09:26:57;4.93;;;3.77;;
20140;SDS011;10231;47.702;9.826;2024-02-16T09:29:28;9.10;;;3.73;;
20140;SDS011;10231;47.702;9.826;2024-02-16T09:31:54;5.00;;;3.97;;
20140;SDS011;10231;47.702;9.826;2024-02-16T09:34:19;5.20;;;3.80;;
20140;SDS011;10231;47.702;9.826;2024-02-16T09:36:45;4.73;;;3.30;;
20140;SDS011;10231;47.702;9.826;2024-02-16T09:39:10;4.77;;;3.60;;
20140;SDS011;10231;47.702;9.826;2024-02-16T09:41:36;7.10;;;3.17;;
20140;SDS011;10231;47.702;9.826;2024-02-16T09:44:04;5.10;;;3.87;;
20140;SDS011;10231;47.702;9.826;2024-02-16T09:46:31;4.83;;;3.50;;
20140;SDS011;10231;47.702;9.826;2024-02-16T09:49:01;5.50;;;3.30;;
20140;SDS011;10231;47.702;9.826;2024-02-16T09:51:31;3.73;;;3.13;;
20140;SDS011;10231;47.702;9.826;2024-02-16T09:54:00;4.93;;;3.80;;
20140;SDS011;10231;47.702;9.826;2024-02-16T09:56:26;5.00;;;3.73;;
20140;SDS011;10231;47.702;9.826;2024-02-16T09:58:52;7.83;;;3.40;;
20140;SDS011;10231;47.702;9.826;2024-02-16T10:01:20;4.93;;;3.20;;
20140;SDS011;10231;47.702;9.826;2024-02-16T10:03:47;3.83;;;3.53;;
20140;SDS011;10231;47.702;9.826;2024-02-16T10:06:13;4.80;;;3.37;;
20140;SDS011;10231;47.702;9.826;2024-02-16T10:11:36;4.17;;;2.33;;
20140;SDS011;10231;47.702;9.826;2024-02-16T10:14:04;2.07;;;1.83;;
20140;SDS011;10231;47.702;9.826;2024-02-16T10:16:30;2.17;;;1.80;;
20140;SDS011;10231;47.702;9.826;2024-02-16T10:18:56;2.97;;;1.87;;
20140;SDS011;10231;47.702;9.826;2024-02-16T10:21:29;1.73;;;1.57;;
20140;SDS011;10231;47.702;9.826;2024-02-16T10:23:56;1.80;;;1.20;;
20140;SDS011;10231;47.702;9.826;2024-02-16T10:26:29;1.80;;;1.40;;
20140;SDS011;10231;47.702;9.826;2024-02-16T10:28:55;1.97;;;1.50;;
20140;SDS011;10231;47.702;9.826;2024-02-16T10:31:22;2.80;;;1.63;;
20140;SDS011;10231;47.702;9.826;2024-02-16T10:33:56;1.63;;;1.53;;
20140;SDS011;10231;47.702;9.826;2024-02-16T10:36:30;1.50;;;1.40;;
20140;SDS011;10231;47.702;9.826;2024-02-16T10:38:57;1.47;;;1.37;;
20140;SDS011;10231;47.702;9.826;2024-02-16T10:41:25;3.50;;;2.37;;
20140;SDS011;10231;47.702;9.826;2024-02-16T10:43:55;2.20;;;2.10;;
20140;SDS011;10231;47.702;9.826;2024-02-16T10:46:21;2.20;;;2.00;;
20140;SDS011;10231;47.702;9.826;2024-02-16T10:48:47;3.70;;;2.53;;
20140;SDS011;10231;47.702;9.826;2024-02-16T10:51:13;4.13;;;2.27;;
20140;SDS011;10231;47.702;9.826;2024-02-16T10:53:41;4.00;;;1.90;;
20140;SDS011;10231;47.702;9.826;2024-02-16T10:56:08;2.37;;;1.93;;
20140;SDS011;10231;47.702;9.826;2024-02-16T10:58:33;2.10;;;1.90;;
20140;SDS011;10231;47.702;9.826;2024-02-16T11:01:07;1.63;;;1.53;;
20140;SDS011;10231;47.702;9.826;2024-02-16T11:03:37;2.90;;;2.10;;
20140;SDS011;10231;47.702;9.826;2024-02-16T11:06:17;2.80;;;2.30;;
20140;SDS011;10231;47.702;9.826;2024-02-16T11:08:43;3.80;;;2.43;;
20140;SDS011;10231;47.702;9.826;2024-02-16T11:11:08;2.10;;;2.00;;
20140;SDS011;10231;47.702;9.826;2024-02-16T11:13:38;1.90;;;1.80;;
20140;SDS011;10231;47.702;9.826;2024-02-16T11:16:08;1.80;;;1.70;;
20140;SDS011;10231;47.702;9.826;2024-02-16T11:18:38;2.20;;;2.00;;
20140;SDS011;10231;47.702;9.826;2024-02-16T11:21:05;4.67;;;2.87;;
20140;SDS011;10231;47.702;9.826;2024-02-16T11:23:33;3.07;;;2.40;;
20140;SDS011;10231;47.702;9.826;2024-02-16T11:26:00;2.73;;;2.50;;
20140;SDS011;10231;47.702;9.826;2024-02-16T11:28:33;3.00;;;2.50;;
20140;SDS011;10231;47.702;9.826;2024-02-16T11:31:00;2.23;;;2.10;;
20140;SDS011;10231;47.702;9.826;2024-02-16T11:33:27;2.70;;;2.50;;
20140;SDS011;10231;47.702;9.826;2024-02-16T11:35:57;2.50;;;2.30;;
20140;SDS011;10231;47.702;9.826;2024-02-16T11:38:24;3.43;;;2.33;;
20140;SDS011;10231;47.702;9.826;2024-02-16T11:41:08;3.43;;;2.43;;
20140;SDS011;10231;47.702;9.826;2024-02-16T11:43:33;2.40;;;2.20;;
20140;SDS011;10231;47.702;9.826;2024-02-16T11:45:59;3.47;;;2.43;;
20140;SDS011;10231;47.702;9.826;2024-02-16T11:48:35;2.50;;;2.30;;
20140;SDS011;10231;47.702;9.826;2024-02-16T11:51:02;2.10;;;2.00;;
20140;SDS011;10231;47.702;9.826;2024-02-16T11:53:31;4.97;;;2.33;;
20140;SDS011;10231;47.702;9.826;2024-02-16T11:55:58;2.10;;;1.90;;
20140;SDS011;10231;47.702;9.826;2024-02-16T11:58:25;2.97;;;2.67;;
20140;SDS011;10231;47.702;9.826;2024-02-16T12:00:51;3.30;;;3.00;;
20140;SDS011;10231;47.702;9.826;2024-02-16T12:03:20;3.43;;;3.13;;
20140;SDS011;10231;47.702;9.826;2024-02-16T12:05:54;3.60;;;3.30;;
20140;SDS011;10231;47.702;9.826;2024-02-16T12:08:23;5.70;;;3.30;;
20140;SDS011;10231;47.702;9.826;2024-02-16T12:10:56;4.00;;;3.10;;
20140;SDS011;10231;47.702;9.826;2024-02-16T12:13:22;8.73;;;4.83;;
20140;SDS011;10231;47.702;9.826;2024-02-16T12:15:48;15.10;;;4.53;;
20140;SDS011;10231;47.702;9.826;2024-02-16T12:20:56;5.03;;;3.87;;
20140;SDS011;10231;47.702;9.826;2024-02-16T12:23:22;5.60;;;3.30;;
20140;SDS011;10231;47.702;9.826;2024-02-16T12:25:48;3.67;;;2.83;;
20140;SDS011;10231;47.702;9.826;2024-02-16T12:28:13;3.83;;;2.50;;
20140;SDS011;10231;47.702;9.826;2024-02-16T12:30:39;6.90;;;2.53;;
20140;SDS011;10231;47.702;9.826;2024-02-16T12:33:05;3.47;;;2.30;;
20140;SDS011;10231;47.702;9.826;2024-02-16T12:35:31;5.03;;;2.50;;
20140;SDS011;10231;47.702;9.826;2024-02-16T12:37:57;5.20;;;2.60;;
20140;SDS011;10231;47.702;9.826;2024-02-16T12:40:22;3.63;;;2.80;;
20140;SDS011;10231;47.702;9.826;2024-02-16T12:42:48;6.63;;;3.20;;
20140;SDS011;10231;47.702;9.826;2024-02-16T12:45:13;5.33;;;3.67;;
20140;SDS011;10231;47.702;9.826;2024-02-16T12:47:41;5.07;;;3.13;;
20140;SDS011;10231;47.702;9.826;2024-02-16T12:50:06;2.30;;;2.10;;
20140;SDS011;10231;47.702;9.826;2024-02-16T12:52:32;3.43;;;2.60;;
20140;SDS011;10231;47.702;9.826;2024-02-16T12:55:00;4.13;;;2.93;;
20140;SDS011;10231;47.702;9.826;2024-02-16T12:57:25;4.23;;;2.90;;
20140;SDS011;10231;47.702;9.826;2024-02-16T12:59:51;3.67;;;3.10;;
20140;SDS011;10231;47.702;9.826;2024-02-16T13:02:16;4.07;;;2.90;;
20140;SDS011;10231;47.702;9.826;2024-02-16T13:04:42;7.33;;;3.33;;
20140;SDS011;10231;47.702;9.826;2024-02-16T13:07:07;3.23;;;2.93;;
20140;SDS011;10231;47.702;9.826;2024-02-16T13:09:33;3.47;;;2.87;;
20140;SDS011;10231;47.702;9.826;2024-02-16T13:11:59;4.60;;;3.60;;
20140;SDS011;10231;47.702;9.826;2024-02-16T13:14:24;5.83;;;3.10;;
20140;SDS011;10231;47.702;9.826;2024-02-16T13:16:51;6.27;;;2.63;;
20140;SDS011;10231;47.702;9.826;2024-02-16T13:19:17;4.23;;;3.03;;
20140;SDS011;10231;47.702;9.826;2024-02-16T13:21:43;5.03;;;2.50;;
20140;SDS011;10231;47.702;9.826;2024-02-16T13:24:09;5.40;;;2.70;;
20140;SDS011;10231;47.702;9.826;2024-02-16T13:26:35;4.00;;;2.73;;
20140;SDS011;10231;47.702;9.826;2024-02-16T13:29:00;3.90;;;2.73;;
20140;SDS011;10231;47.702;9.826;2024-02-16T13:31:26;3.10;;;2.80;;
20140;SDS011;10231;47.702;9.826;2024-02-16T13:33:52;4.07;;;2.90;;
20140;SDS011;10231;47.702;9.826;2024-02-16T13:36:18;4.43;;;3.20;;
20140;SDS011;10231;47.702;9.826;2024-02-16T13:38:44;3.03;;;2.63;;
20140;SDS011;10231;47.702;9.826;2024-02-16T13:41:10;3.00;;;2.70;;
20140;SDS011;10231;47.702;9.826;2024-02-16T13:43:35;2.87;;;2.57;;
20140;SDS011;10231;47.702;9.826;2024-02-16T13:46:01;6.60;;;2.90;;
20140;SDS011;10231;47.702;9.826;2024-02-16T13:48:26;4.33;;;2.40;;
20140;SDS011;10231;47.702;9.826;2024-02-16T13:50:53;4.13;;;2.23;;
20140;SDS011;10231;47.702;9.826;2024-02-16T13:53:19;4.00;;;2.73;;
20140;SDS011;10231;47.702;9.826;2024-02-16T13:55:47;3.80;;;2.60;;
20140;SDS011;10231;47.702;9.826;2024-02-16T13:58:14;4.00;;;2.93;;
20140;SDS011;10231;47.702;9.826;2024-02-16T14:00:39;4.50;;;2.83;;
20140;SDS011;10231;47.702;9.826;2024-02-16T14:03:08;4.90;;;3.40;;
20140;SDS011;10231;47.702;9.826;2024-02-16T14:05:36;4.17;;;2.27;;
20140;SDS011;10231;47.702;9.826;2024-02-16T14:08:05;3.50;;;2.63;;
20140;SDS011;10231;47.702;9.826;2024-02-16T14:10:32;3.60;;;2.80;;
20140;SDS011;10231;47.702;9.826;2024-02-16T14:12:58;7.67;;;3.03;;
20140;SDS011;10231;47.702;9.826;2024-02-16T14:15:23;2.93;;;2.47;;
20140;SDS011;10231;47.702;9.826;2024-02-16T14:17:49;2.97;;;2.57;;
20140;SDS011;10231;47.702;9.826;2024-02-16T14:20:14;4.60;;;2.73;;
20140;SDS011;10231;47.702;9.826;2024-02-16T14:22:40;6.37;;;2.47;;
20140;SDS011;10231;47.702;9.826;2024-02-16T14:25:06;3.30;;;3.00;;
20140;SDS011;10231;47.702;9.826;2024-02-16T14:27:31;4.50;;;2.70;;
20140;SDS011;10231;47.702;9.826;2024-02-16T14:29:58;4.37;;;2.50;;
20140;SDS011;10231;47.702;9.826;2024-02-16T14:32:24;2.53;;;2.27;;
20140;SDS011;10231;47.702;9.826;2024-02-16T14:34:49;4.83;;;2.70;;
20140;SDS011;10231;47.702;9.826;2024-02-16T14:37:15;4.27;;;2.60;;
20140;SDS011;10231;47.702;9.826;2024-02-16T14:39:40;5.67;;;2.53;;
20140;SDS011;10231;47.702;9.826;2024-02-16T14:42:06;5.00;;;2.97;;
20140;SDS011;10231;47.702;9.826;2024-02-16T14:44:31;6.93;;;2.83;;
20140;SDS011;10231;47.702;9.826;2024-02-16T14:46:57;4.73;;;2.67;;
20140;SDS011;10231;47.702;9.826;2024-02-16T14:49:22;2.60;;;2.37;;
20140;SDS011;10231;47.702;9.826;2024-02-16T14:51:52;5.43;;;2.87;;